createdAt,value
2017-04-19T00:01:04.038Z,1026.87
2017-04-19T00:02:13.645Z,1026.87
2017-04-19T00:03:24.159Z,1026.86
2017-04-19T00:04:33.755Z,1026.82
2017-04-19T00:05:43.964Z,1026.81
2017-04-19T00:06:53.881Z,1026.81
2017-04-19T00:08:03.802Z,1026.84
2017-04-19T00:09:13.963Z,1026.86
2017-04-19T00:10:23.870Z,1026.84
2017-04-19T00:11:33.467Z,1026.85
2017-04-19T00:12:43.371Z,1026.87
2017-04-19T00:13:53.577Z,1026.88
2017-04-19T00:15:03.583Z,1026.89
2017-04-19T00:16:13.798Z,1026.89
2017-04-19T00:17:23.703Z,1026.9
2017-04-19T00:18:33.362Z,1026.93
2017-04-19T00:19:43.568Z,1026.9
2017-04-19T00:20:53.624Z,1026.92
2017-04-19T00:22:03.833Z,1026.95
2017-04-19T00:23:13.742Z,1026.92
2017-04-19T00:24:23.359Z,1026.92
2017-04-19T00:25:33.262Z,1026.93
2017-04-19T00:26:43.742Z,1026.92
2017-04-19T00:27:53.355Z,1026.9
2017-04-19T00:29:03.566Z,1026.89
2017-04-19T00:30:13.177Z,1026.89
2017-04-19T00:31:23.083Z,1026.89
2017-04-19T00:32:32.926Z,1026.87
2017-04-19T00:33:42.844Z,1026.89
2017-04-19T00:34:52.442Z,1026.89
2017-04-19T00:36:02.355Z,1026.92
2017-04-19T00:37:11.953Z,1026.89
2017-04-19T00:38:21.696Z,1026.91
2017-04-19T00:39:31.294Z,1026.9
2017-04-19T00:40:41.207Z,1026.91
2017-04-19T00:41:51.418Z,1026.92
2017-04-19T00:43:01.024Z,1026.94
2017-04-19T00:44:10.465Z,1026.86
2017-04-19T00:45:20.360Z,1026.9
2017-04-19T00:46:29.685Z,1026.88
2017-04-19T00:47:39.901Z,1026.88
2017-04-19T00:48:49.804Z,1026.9
2017-04-19T00:49:59.813Z,1026.87
2017-04-19T00:51:09.729Z,1026.88
2017-04-19T00:52:19.942Z,1026.89
2017-04-19T00:53:29.547Z,1026.88
2017-04-19T00:54:39.821Z,1026.9
2017-04-19T00:55:50.022Z,1026.92
2017-04-19T00:56:59.925Z,1026.9
2017-04-19T00:58:09.829Z,1026.89
2017-04-19T00:59:20.061Z,1026.91
2017-04-19T01:00:30.272Z,1026.91
2017-04-19T01:01:40.691Z,1026.94
2017-04-19T01:02:50.292Z,1026.93
2017-04-19T01:04:00.215Z,1026.96
2017-04-19T01:05:09.806Z,1026.97
2017-04-19T01:06:19.709Z,1026.97
2017-04-19T01:07:29.566Z,1026.96
2017-04-19T01:08:39.471Z,1026.93
2017-04-19T01:09:49.697Z,1026.96
2017-04-19T01:10:59.608Z,1026.96
2017-04-19T01:12:09.509Z,1027.02
2017-04-19T01:13:19.677Z,1027.04
2017-04-19T01:14:29.575Z,1026.95
2017-04-19T01:15:39.485Z,1027.02
2017-04-19T01:16:49.699Z,1027
2017-04-19T01:17:59.920Z,1027.01
2017-04-19T01:19:10.075Z,1027.05
2017-04-19T01:20:19.971Z,1027.02
2017-04-19T01:21:29.899Z,1026.99
2017-04-19T01:22:40.299Z,1027
2017-04-19T01:23:50.526Z,1027
2017-04-19T01:25:01.094Z,1027.04
2017-04-19T01:26:10.765Z,1027.1
2017-04-19T01:27:20.679Z,1027.11
2017-04-19T01:28:30.592Z,1027.11
2017-04-19T01:29:40.800Z,1027.09
2017-04-19T01:30:50.642Z,1027.07
2017-04-19T01:32:00.857Z,1027.08
2017-04-19T01:33:10.766Z,1027.09
2017-04-19T01:34:20.689Z,1027.1
2017-04-19T01:35:30.608Z,1027.13
2017-04-19T01:36:40.763Z,1027.15
2017-04-19T01:37:50.999Z,1027.15
2017-04-19T01:39:00.907Z,1027.16
2017-04-19T01:40:10.807Z,1027.17
2017-04-19T01:41:20.415Z,1027.18
2017-04-19T01:42:30.632Z,1027.18
2017-04-19T01:43:40.539Z,1027.19
2017-04-19T01:44:50.132Z,1027.2
2017-04-19T01:46:00.034Z,1027.13
2017-04-19T01:47:09.331Z,1027.16
2017-04-19T01:48:19.577Z,1027.17
2017-04-19T01:49:29.251Z,1027.22
2017-04-19T01:50:39.208Z,1027.23
2017-04-19T01:51:49.113Z,1027.24
2017-04-19T01:52:59.313Z,1027.24
2017-04-19T01:54:09.784Z,1027.23
2017-04-19T01:55:19.074Z,1027.21
2017-04-19T01:56:28.976Z,1027.2
2017-04-19T01:57:38.893Z,1027.19
2017-04-19T01:58:48.842Z,1027.22
2017-04-19T01:59:58.539Z,1027.24
2017-04-19T02:01:08.463Z,1027.25
2017-04-19T02:02:18.683Z,1027.26
2017-04-19T02:03:28.289Z,1027.28
2017-04-19T02:04:38.203Z,1027.26
2017-04-19T02:05:48.672Z,1027.3
2017-04-19T02:06:58.886Z,1027.28
2017-04-19T02:08:08.514Z,1027.25
2017-04-19T02:09:17.800Z,1027.27
2017-04-19T02:10:27.390Z,1027.3
2017-04-19T02:11:37.701Z,1027.29
2017-04-19T02:12:47.308Z,1027.33
2017-04-19T02:13:57.210Z,1027.3
2017-04-19T02:15:07.113Z,1027.27
2017-04-19T02:16:16.707Z,1027.31
2017-04-19T02:17:26.785Z,1027.29
2017-04-19T02:18:36.690Z,1027.28
2017-04-19T02:19:46.671Z,1027.29
2017-04-19T02:20:56.583Z,1027.31
2017-04-19T02:22:06.868Z,1027.33
2017-04-19T02:23:17.335Z,1027.28
2017-04-19T02:24:27.628Z,1027.3
2017-04-19T02:25:37.532Z,1027.3
2017-04-19T02:26:47.744Z,1027.33
2017-04-19T02:27:57.650Z,1027.33
2017-04-19T02:29:07.846Z,1027.38
2017-04-19T02:30:17.442Z,1027.36
2017-04-19T02:31:27.348Z,1027.38
2017-04-19T02:32:36.947Z,1027.4
2017-04-19T02:33:47.154Z,1027.39
2017-04-19T02:34:57.463Z,1027.37
2017-04-19T02:36:07.366Z,1027.4
2017-04-19T02:37:16.660Z,1027.43
2017-04-19T02:38:26.575Z,1027.41
2017-04-19T02:39:36.481Z,1027.38
2017-04-19T02:40:46.850Z,1027.45
2017-04-19T02:41:56.760Z,1027.42
2017-04-19T02:43:06.978Z,1027.42
2017-04-19T02:44:16.942Z,1027.47
2017-04-19T02:45:27.165Z,1027.42
2017-04-19T02:46:36.699Z,1027.47
2017-04-19T02:47:46.917Z,1027.49
2017-04-19T02:48:57.152Z,1027.5
2017-04-19T02:50:07.161Z,1027.51
2017-04-19T02:51:17.373Z,1027.51
2017-04-19T02:52:27.983Z,1027.56
2017-04-19T02:53:38.388Z,1027.53
2017-04-19T02:54:48.302Z,1027.51
2017-04-19T02:55:58.518Z,1027.52
2017-04-19T02:57:08.732Z,1027.52
2017-04-19T02:58:19.461Z,1027.5
2017-04-19T02:59:29.680Z,1027.59
2017-04-19T03:00:39.589Z,1027.56
2017-04-19T03:01:49.505Z,1027.58
2017-04-19T03:02:59.419Z,1027.59
2017-04-19T03:04:08.827Z,1027.62
2017-04-19T03:05:18.747Z,1027.61
2017-04-19T03:06:28.655Z,1027.59
2017-04-19T03:07:38.872Z,1027.62
2017-04-19T03:08:48.791Z,1027.57
2017-04-19T03:09:58.539Z,1027.59
2017-04-19T03:11:08.771Z,1027.58
2017-04-19T03:12:18.665Z,1027.57
2017-04-19T03:13:28.874Z,1027.58
2017-04-19T03:14:38.780Z,1027.6
2017-04-19T03:15:49.392Z,1027.59
2017-04-19T03:16:59.293Z,1027.62
2017-04-19T03:18:09.618Z,1027.59
2017-04-19T03:19:19.987Z,1027.64
2017-04-19T03:20:30.210Z,1027.64
2017-04-19T03:21:40.677Z,1027.63
2017-04-19T03:22:50.585Z,1027.63
2017-04-19T03:24:00.489Z,1027.62
2017-04-19T03:25:10.706Z,1027.64
2017-04-19T03:26:20.922Z,1027.64
2017-04-19T03:27:30.929Z,1027.64
2017-04-19T03:28:40.840Z,1027.62
2017-04-19T03:29:51.057Z,1027.68
2017-04-19T03:31:00.655Z,1027.7
2017-04-19T03:32:10.862Z,1027.72
2017-04-19T03:33:20.722Z,1027.75
2017-04-19T03:34:30.930Z,1027.74
2017-04-19T03:35:40.215Z,1027.78
2017-04-19T03:36:50.121Z,1027.77
2017-04-19T03:38:00.022Z,1027.76
2017-04-19T03:39:10.188Z,1027.75
2017-04-19T03:40:20.091Z,1027.8
2017-04-19T03:41:29.996Z,1027.76
2017-04-19T03:42:39.904Z,1027.77
2017-04-19T03:43:49.808Z,1027.79
2017-04-19T03:45:00.022Z,1027.82
2017-04-19T03:46:10.236Z,1027.81
2017-04-19T03:47:20.607Z,1027.84
2017-04-19T03:48:31.016Z,1027.83
2017-04-19T03:49:40.611Z,1027.85
2017-04-19T03:50:50.812Z,1027.84
2017-04-19T03:52:00.808Z,1027.87
2017-04-19T03:53:09.811Z,1027.87
2017-04-19T03:54:19.421Z,1027.86
2017-04-19T03:55:29.325Z,1027.87
2017-04-19T03:56:39.537Z,1027.86
2017-04-19T03:57:49.447Z,1027.9
2017-04-19T03:58:59.665Z,1027.89
2017-04-19T04:00:09.891Z,1027.93
2017-04-19T04:01:20.101Z,1027.93
2017-04-19T04:02:30.251Z,1027.91
2017-04-19T04:03:40.472Z,1027.91
2017-04-19T04:04:50.680Z,1027.92
2017-04-19T04:05:59.969Z,1027.95
2017-04-19T04:07:09.882Z,1027.93
2017-04-19T04:08:20.263Z,1027.9
2017-04-19T04:09:30.524Z,1027.91
2017-04-19T04:10:40.428Z,1027.92
2017-04-19T04:11:50.650Z,1027.93
2017-04-19T04:13:00.867Z,1027.98
2017-04-19T04:14:11.425Z,1028
2017-04-19T04:15:21.643Z,1028.05
2017-04-19T04:16:31.554Z,1027.98
2017-04-19T04:17:41.472Z,1028.03
2017-04-19T04:18:51.694Z,1028.01
2017-04-19T04:20:02.270Z,1028.04
2017-04-19T04:21:12.377Z,1028.04
2017-04-19T04:22:21.968Z,1028.05
2017-04-19T04:23:31.965Z,1028.09
2017-04-19T04:24:42.183Z,1028.08
2017-04-19T04:25:53.007Z,1028.11
2017-04-19T04:27:03.240Z,1028.1
2017-04-19T04:28:13.136Z,1028.1
2017-04-19T04:29:22.756Z,1028.13
2017-04-19T04:30:32.675Z,1028.15
2017-04-19T04:31:43.028Z,1028.16
2017-04-19T04:32:52.650Z,1028.14
2017-04-19T04:34:02.261Z,1028.16
2017-04-19T04:35:12.206Z,1028.16
2017-04-19T04:36:21.509Z,1028.13
2017-04-19T04:37:32.029Z,1028.14
2017-04-19T04:38:42.270Z,1028.17
2017-04-19T04:39:51.881Z,1028.13
2017-04-19T04:41:01.496Z,1028.16
2017-04-19T04:42:11.407Z,1028.14
2017-04-19T04:43:21.633Z,1028.17
2017-04-19T04:44:31.228Z,1028.14
2017-04-19T04:45:41.141Z,1028.19
2017-04-19T04:46:51.086Z,1028.23
2017-04-19T04:48:00.685Z,1028.23
2017-04-19T04:49:11.010Z,1028.21
2017-04-19T04:50:21.221Z,1028.24
2017-04-19T04:51:31.536Z,1028.28
2017-04-19T04:52:41.147Z,1028.26
2017-04-19T04:53:51.055Z,1028.35
2017-04-19T04:55:01.611Z,1028.32
2017-04-19T04:56:11.835Z,1028.35
2017-04-19T04:57:22.049Z,1028.36
2017-04-19T04:58:31.644Z,1028.35
2017-04-19T04:59:40.637Z,1028.4
2017-04-19T05:00:50.639Z,1028.45
2017-04-19T05:02:00.858Z,1028.43
2017-04-19T05:03:10.159Z,1028.46
2017-04-19T05:04:19.770Z,1028.45
2017-04-19T05:05:29.686Z,1028.5
2017-04-19T05:06:39.844Z,1028.49
2017-04-19T05:07:49.759Z,1028.49
2017-04-19T05:08:59.383Z,1028.51
2017-04-19T05:10:09.612Z,1028.52
2017-04-19T05:11:19.217Z,1028.52
2017-04-19T05:12:29.470Z,1028.5
2017-04-19T05:13:39.103Z,1028.5
2017-04-19T05:14:49.317Z,1028.57
2017-04-19T05:15:59.270Z,1028.56
2017-04-19T05:17:09.186Z,1028.6
2017-04-19T05:18:19.120Z,1028.58
2017-04-19T05:19:29.071Z,1028.64
2017-04-19T05:20:39.295Z,1028.64
2017-04-19T05:21:49.513Z,1028.65
2017-04-19T05:22:59.193Z,1028.62
2017-04-19T05:24:09.737Z,1028.7
2017-04-19T05:25:19.663Z,1028.66
2017-04-19T05:26:29.886Z,1028.7
2017-04-19T05:27:39.517Z,1028.69
2017-04-19T05:28:49.739Z,1028.64
2017-04-19T05:30:00.134Z,1028.69
2017-04-19T05:31:10.053Z,1028.73
2017-04-19T05:32:19.651Z,1028.76
2017-04-19T05:33:29.591Z,1028.75
2017-04-19T05:34:38.919Z,1028.77
2017-04-19T05:35:48.763Z,1028.76
2017-04-19T05:36:58.982Z,1028.83
2017-04-19T05:38:09.204Z,1028.82
2017-04-19T05:39:19.121Z,1028.83
2017-04-19T05:40:29.028Z,1028.89
2017-04-19T05:41:38.784Z,1028.88
2017-04-19T05:42:49.012Z,1028.91
2017-04-19T05:43:59.227Z,1028.95
2017-04-19T05:45:09.137Z,1028.95
2017-04-19T05:46:19.355Z,1029
2017-04-19T05:47:29.512Z,1029.02
2017-04-19T05:48:39.114Z,1029.03
2017-04-19T05:49:48.723Z,1028.98
2017-04-19T05:50:58.924Z,1029.01
2017-04-19T05:52:08.993Z,1029.03
2017-04-19T05:53:19.003Z,1029.03
2017-04-19T05:54:28.876Z,1029.04
2017-04-19T05:55:38.796Z,1029.07
2017-04-19T05:56:49.021Z,1029.1
2017-04-19T05:57:59.245Z,1029.08
2017-04-19T05:59:09.100Z,1029.09
2017-04-19T06:00:19.056Z,1029.1
2017-04-19T06:01:28.666Z,1029.12
2017-04-19T06:02:38.919Z,1029.09
2017-04-19T06:03:48.212Z,1029.12
2017-04-19T06:04:58.472Z,1029.15
2017-04-19T06:06:08.758Z,1029.14
2017-04-19T06:07:19.003Z,1029.14
2017-04-19T06:08:28.934Z,1029.13
2017-04-19T06:09:39.165Z,1029.16
2017-04-19T06:10:49.384Z,1029.26
2017-04-19T06:11:59.600Z,1029.19
2017-04-19T06:13:09.197Z,1029.27
2017-04-19T06:14:18.805Z,1029.25
2017-04-19T06:15:28.750Z,1029.33
2017-04-19T06:16:39.059Z,1029.31
2017-04-19T06:17:48.969Z,1029.3
2017-04-19T06:18:59.182Z,1029.3
2017-04-19T06:20:09.176Z,1029.34
2017-04-19T06:21:19.096Z,1029.38
2017-04-19T06:22:29.309Z,1029.34
2017-04-19T06:23:39.235Z,1029.4
2017-04-19T06:24:49.033Z,1029.4
2017-04-19T06:26:31.035Z,1029.43
2017-04-19T06:27:40.898Z,1029.41
2017-04-19T06:28:50.815Z,1029.44
2017-04-19T06:30:01.039Z,1029.42
2017-04-19T06:31:10.646Z,1029.36
2017-04-19T06:32:20.566Z,1029.45
2017-04-19T06:33:30.793Z,1029.48
2017-04-19T06:34:40.433Z,1029.47
2017-04-19T06:35:50.651Z,1029.48
2017-04-19T06:36:59.960Z,1029.5
2017-04-19T06:38:10.244Z,1029.48
2017-04-19T06:39:20.867Z,1029.53
2017-04-19T06:40:31.197Z,1029.51
2017-04-19T06:41:41.417Z,1029.57
2017-04-19T06:42:51.658Z,1029.54
2017-04-19T06:44:01.582Z,1029.55
2017-04-19T06:45:11.597Z,1029.57
2017-04-19T06:46:21.204Z,1029.59
2017-04-19T06:47:31.431Z,1029.59
2017-04-19T06:48:41.070Z,1029.59
2017-04-19T06:49:51.295Z,1029.62
2017-04-19T06:51:01.693Z,1029.63
2017-04-19T06:52:12.108Z,1029.6
2017-04-19T06:53:22.329Z,1029.6
2017-04-19T06:54:32.388Z,1029.59
2017-04-19T06:55:42.303Z,1029.66
2017-04-19T06:56:52.473Z,1029.59
2017-04-19T06:58:02.143Z,1029.62
2017-04-19T06:59:12.051Z,1029.67
2017-04-19T07:00:21.655Z,1029.71
2017-04-19T07:01:31.882Z,1029.75
2017-04-19T07:02:42.260Z,1029.79
2017-04-19T07:03:52.560Z,1029.77
2017-04-19T07:05:02.996Z,1029.75
2017-04-19T07:06:13.317Z,1029.75
2017-04-19T07:07:23.392Z,1029.8
2017-04-19T07:08:33.560Z,1029.79
2017-04-19T07:09:44.187Z,1029.82
2017-04-19T07:10:54.408Z,1029.79
2017-04-19T07:12:04.328Z,1029.78
2017-04-19T07:13:13.641Z,1029.78
2017-04-19T07:14:24.380Z,1029.82
2017-04-19T07:15:34.614Z,1029.87
2017-04-19T07:16:43.913Z,1029.81
2017-04-19T07:17:53.536Z,1029.81
2017-04-19T07:19:03.439Z,1029.83
2017-04-19T07:20:13.703Z,1029.86
2017-04-19T07:21:23.638Z,1029.83
2017-04-19T07:22:33.251Z,1029.8
2017-04-19T07:23:43.489Z,1029.84
2017-04-19T07:24:53.485Z,1029.85
2017-04-19T07:26:04.084Z,1029.85
2017-04-19T07:27:14.343Z,1029.88
2017-04-19T07:28:24.174Z,1029.87
2017-04-19T07:29:33.792Z,1029.91
2017-04-19T07:30:44.020Z,1029.89
2017-04-19T07:31:54.525Z,1029.88
2017-04-19T07:33:04.450Z,1029.89
2017-04-19T07:34:14.675Z,1029.87
2017-04-19T07:35:24.591Z,1029.91
2017-04-19T07:36:34.823Z,1029.92
2017-04-19T07:37:44.841Z,1029.88
2017-04-19T07:38:55.093Z,1029.93
2017-04-19T07:40:05.006Z,1029.87
2017-04-19T07:41:15.012Z,1029.92
2017-04-19T07:42:25.268Z,1029.87
2017-04-19T07:43:35.642Z,1029.85
2017-04-19T07:44:45.557Z,1029.91
2017-04-19T07:45:55.214Z,1029.85
2017-04-19T07:47:05.431Z,1029.94
2017-04-19T07:48:14.761Z,1029.93
2017-04-19T07:49:25.053Z,1029.92
2017-04-19T07:50:34.678Z,1029.89
2017-04-19T07:51:44.914Z,1030.01
2017-04-19T07:52:54.839Z,1029.9
2017-04-19T07:54:05.107Z,1029.85
2017-04-19T07:55:15.227Z,1029.88
2017-04-19T07:56:25.162Z,1029.88
2017-04-19T07:57:35.081Z,1029.9
2017-04-19T07:58:45.046Z,1029.93
2017-04-19T07:59:55.178Z,1029.89
2017-04-19T08:01:05.468Z,1029.96
2017-04-19T08:02:14.784Z,1029.92
2017-04-19T08:03:25.024Z,1029.89
2017-04-19T08:04:35.254Z,1029.89
2017-04-19T08:05:45.321Z,1029.84
2017-04-19T08:06:55.753Z,1029.93
2017-04-19T08:08:05.672Z,1029.89
2017-04-19T08:09:15.595Z,1029.94
2017-04-19T08:10:25.238Z,1029.93
2017-04-19T08:11:34.543Z,1029.9
2017-04-19T08:12:44.620Z,1029.89
2017-04-19T08:13:54.863Z,1029.98
2017-04-19T08:15:04.800Z,1030.03
2017-04-19T08:16:14.746Z,1030.02
2017-04-19T08:17:24.382Z,1029.95
2017-04-19T08:18:34.264Z,1030.04
2017-04-19T08:19:44.479Z,1029.95
2017-04-19T08:20:54.089Z,1030.04
2017-04-19T08:22:04.003Z,1030.06
2017-04-19T08:23:13.674Z,1030.03
2017-04-19T08:24:24.243Z,1030.11
2017-04-19T08:25:34.227Z,1030.13
2017-04-19T08:26:44.167Z,1030.11
2017-04-19T08:27:53.503Z,1030.14
2017-04-19T08:29:03.176Z,1030.09
2017-04-19T08:30:13.373Z,1030.12
2017-04-19T08:31:23.000Z,1030.18
2017-04-19T08:32:32.934Z,1030.15
2017-04-19T08:33:43.173Z,1030.13
2017-04-19T08:34:53.098Z,1030.1
2017-04-19T08:36:02.973Z,1030.12
2017-04-19T08:37:12.653Z,1030.11
2017-04-19T08:38:22.285Z,1030.19
2017-04-19T08:39:32.247Z,1030.19
2017-04-19T08:40:41.858Z,1030.22
2017-04-19T08:41:52.238Z,1030.17
2017-04-19T08:43:02.157Z,1030.16
2017-04-19T08:44:12.082Z,1030.17
2017-04-19T08:45:21.743Z,1030.18
2017-04-19T08:46:32.080Z,1030.15
2017-04-19T08:47:41.992Z,1030.11
2017-04-19T08:48:51.306Z,1030.17
2017-04-19T08:50:01.523Z,1030.18
2017-04-19T08:51:11.138Z,1030.17
2017-04-19T08:52:21.430Z,1030.17
2017-04-19T08:53:31.291Z,1030.19
2017-04-19T08:54:40.894Z,1030.21
2017-04-19T08:55:50.497Z,1030.21
2017-04-19T08:56:59.799Z,1030.17
2017-04-19T08:58:10.060Z,1030.16
2017-04-19T08:59:19.617Z,1030.12
2017-04-19T09:00:29.531Z,1030.18
2017-04-19T09:01:39.351Z,1030.22
2017-04-19T09:02:49.309Z,1030.24
2017-04-19T09:03:59.226Z,1030.33
2017-04-19T09:05:09.503Z,1030.28
2017-04-19T09:06:19.737Z,1030.3
2017-04-19T09:07:29.039Z,1030.29
2017-04-19T09:08:38.359Z,1030.3
2017-04-19T09:09:48.275Z,1030.28
2017-04-19T09:10:58.192Z,1030.36
2017-04-19T09:12:08.451Z,1030.28
2017-04-19T09:13:18.369Z,1030.26
2017-04-19T09:14:27.990Z,1030.3
2017-04-19T09:15:37.613Z,1030.27
2017-04-19T09:16:47.696Z,1030.3
2017-04-19T09:17:57.614Z,1030.39
2017-04-19T09:19:07.216Z,1030.35
2017-04-19T09:20:17.128Z,1030.34
2017-04-19T09:21:26.747Z,1030.37
2017-04-19T09:22:36.513Z,1030.3
2017-04-19T09:23:46.773Z,1030.31
2017-04-19T09:24:56.398Z,1030.27
2017-04-19T09:26:05.996Z,1030.3
2017-04-19T09:27:15.951Z,1030.32
2017-04-19T09:28:25.854Z,1030.39
2017-04-19T09:29:35.778Z,1030.39
2017-04-19T09:30:45.387Z,1030.38
2017-04-19T09:31:54.988Z,1030.4
2017-04-19T09:33:05.212Z,1030.3
2017-04-19T09:34:14.045Z,1030.37
2017-04-19T09:35:23.684Z,1030.42
2017-04-19T09:36:33.614Z,1030.38
2017-04-19T09:37:43.542Z,1030.36
2017-04-19T09:38:52.862Z,1030.33
2017-04-19T09:40:02.786Z,1030.4
2017-04-19T09:41:12.720Z,1030.42
2017-04-19T09:42:22.022Z,1030.51
2017-04-19T09:43:31.653Z,1030.46
2017-04-19T09:44:41.866Z,1030.47
2017-04-19T09:45:52.335Z,1030.46
2017-04-19T09:47:02.256Z,1030.44
2017-04-19T09:48:12.175Z,1030.42
2017-04-19T09:49:22.428Z,1030.47
2017-04-19T09:50:32.676Z,1030.49
2017-04-19T09:51:42.529Z,1030.49
2017-04-19T09:52:52.145Z,1030.55
2017-04-19T09:54:01.754Z,1030.48
2017-04-19T09:55:11.983Z,1030.53
2017-04-19T09:56:21.478Z,1030.54
2017-04-19T09:57:31.986Z,1030.57
2017-04-19T09:58:41.803Z,1030.55
2017-04-19T09:59:51.405Z,1030.48
2017-04-19T10:01:01.344Z,1030.52
2017-04-19T10:02:11.273Z,1030.51
2017-04-19T10:03:20.937Z,1030.47
2017-04-19T10:04:30.854Z,1030.44
2017-04-19T10:05:40.794Z,1030.47
2017-04-19T10:06:51.016Z,1030.53
2017-04-19T10:08:00.932Z,1030.5
2017-04-19T10:09:10.798Z,1030.53
2017-04-19T10:10:20.727Z,1030.52
2017-04-19T10:11:30.636Z,1030.51
2017-04-19T10:12:40.554Z,1030.53
2017-04-19T10:13:50.171Z,1030.57
2017-04-19T10:14:59.873Z,1030.52
2017-04-19T10:16:09.782Z,1030.65
2017-04-19T10:17:20.081Z,1030.63
2017-04-19T10:18:30.009Z,1030.56
2017-04-19T10:19:39.624Z,1030.56
2017-04-19T10:20:49.002Z,1030.58
2017-04-19T10:21:58.631Z,1030.54
2017-04-19T10:23:08.235Z,1030.51
2017-04-19T10:24:17.535Z,1030.46
2017-04-19T10:25:27.524Z,1030.53
2017-04-19T10:26:37.932Z,1030.49
2017-04-19T10:27:47.972Z,1030.52
2017-04-19T10:28:57.580Z,1030.48
2017-04-19T10:30:07.190Z,1030.45
2017-04-19T10:31:17.423Z,1030.43
2017-04-19T10:32:27.492Z,1030.4
2017-04-19T10:33:37.720Z,1030.49
2017-04-19T10:34:47.941Z,1030.47
2017-04-19T10:35:57.548Z,1030.47
2017-04-19T10:37:07.762Z,1030.43
2017-04-19T10:38:18.034Z,1030.48
2017-04-19T10:39:27.674Z,1030.4
2017-04-19T10:40:37.908Z,1030.5
2017-04-19T10:41:48.136Z,1030.53
2017-04-19T10:42:58.048Z,1030.49
2017-04-19T10:44:08.419Z,1030.48
2017-04-19T10:45:17.727Z,1030.51
2017-04-19T10:46:27.952Z,1030.47
2017-04-19T10:47:37.871Z,1030.39
2017-04-19T10:48:47.786Z,1030.36
2017-04-19T10:49:57.545Z,1030.43
2017-04-19T10:51:07.476Z,1030.38
2017-04-19T10:52:17.220Z,1030.41
2017-04-19T10:53:27.443Z,1030.48
2017-04-19T10:54:37.356Z,1030.39
2017-04-19T10:55:47.133Z,1030.47
2017-04-19T10:56:57.050Z,1030.28
2017-04-19T10:58:06.669Z,1030.42
2017-04-19T10:59:16.887Z,1030.46
2017-04-19T11:00:27.112Z,1030.43
2017-04-19T11:01:37.512Z,1030.53
2017-04-19T11:02:47.741Z,1030.56
2017-04-19T11:03:57.653Z,1030.49
2017-04-19T11:05:06.975Z,1030.51
2017-04-19T11:06:17.195Z,1030.51
2017-04-19T11:07:27.252Z,1030.47
2017-04-19T11:08:36.877Z,1030.45
2017-04-19T11:09:45.878Z,1030.53
2017-04-19T11:10:56.098Z,1030.51
2017-04-19T11:12:06.313Z,1030.64
2017-04-19T11:13:16.828Z,1030.55
2017-04-19T11:14:27.045Z,1030.56
2017-04-19T11:15:37.256Z,1030.57
2017-04-19T11:16:46.567Z,1030.7
2017-04-19T11:17:55.876Z,1030.65
2017-04-19T11:19:06.131Z,1030.58
2017-04-19T11:20:15.743Z,1030.57
2017-04-19T11:21:25.660Z,1030.66
2017-04-19T11:22:36.187Z,1030.5
2017-04-19T11:23:46.343Z,1030.57
2017-04-19T11:24:56.521Z,1030.51
2017-04-19T11:26:06.160Z,1030.55
2017-04-19T11:27:15.788Z,1030.54
2017-04-19T11:28:25.697Z,1030.52
2017-04-19T11:29:35.343Z,1030.51
2017-04-19T11:30:45.822Z,1030.51
2017-04-19T11:31:55.133Z,1030.46
2017-04-19T11:33:05.350Z,1030.41
2017-04-19T11:34:14.953Z,1030.48
2017-04-19T11:35:24.588Z,1030.52
2017-04-19T11:36:34.836Z,1030.44
2017-04-19T11:37:44.453Z,1030.46
2017-04-19T11:38:54.086Z,1030.44
2017-04-19T11:40:03.725Z,1030.4
2017-04-19T11:41:13.342Z,1030.4
2017-04-19T11:42:22.740Z,1030.42
2017-04-19T11:43:32.668Z,1030.29
2017-04-19T11:44:41.969Z,1030.32
2017-04-19T11:45:52.186Z,1030.35
2017-04-19T11:47:01.806Z,1030.42
2017-04-19T11:48:11.719Z,1030.44
2017-04-19T11:49:21.348Z,1030.36
2017-04-19T11:50:30.947Z,1030.35
2017-04-19T11:51:40.954Z,1030.32
2017-04-19T11:52:51.023Z,1030.29
2017-04-19T11:54:01.052Z,1030.33
2017-04-19T11:55:10.685Z,1030.29
2017-04-19T11:56:20.911Z,1030.27
2017-04-19T11:57:30.823Z,1030.29
2017-04-19T11:58:40.115Z,1030.3
2017-04-19T11:59:50.362Z,1030.31
2017-04-19T12:00:59.974Z,1030.27
2017-04-19T12:02:09.891Z,1030.33
2017-04-19T12:03:19.823Z,1030.23
2017-04-19T12:04:29.736Z,1030.27
2017-04-19T12:05:40.008Z,1030.27
2017-04-19T12:06:49.625Z,1030.32
2017-04-19T12:07:59.234Z,1030.35
2017-04-19T12:09:09.143Z,1030.32
2017-04-19T12:10:18.753Z,1030.4
2017-04-19T12:11:28.973Z,1030.34
2017-04-19T12:12:38.907Z,1030.34
2017-04-19T12:13:48.537Z,1030.29
2017-04-19T12:14:58.448Z,1030.29
2017-04-19T12:16:07.443Z,1030.32
2017-04-19T12:17:17.363Z,1030.25
2017-04-19T12:18:27.291Z,1030.3
2017-04-19T12:19:37.520Z,1030.32
2017-04-19T12:20:47.757Z,1030.28
2017-04-19T12:21:57.975Z,1030.24
2017-04-19T12:23:08.137Z,1030.23
2017-04-19T12:24:18.072Z,1030.17
2017-04-19T12:25:26.751Z,1030.26
2017-04-19T12:26:36.361Z,1030.23
2017-04-19T12:27:46.310Z,1030.21
2017-04-19T12:28:56.554Z,1030.2
2017-04-19T12:30:06.774Z,1030.2
2017-04-19T12:31:16.386Z,1030.25
2017-04-19T12:32:25.992Z,1030.27
2017-04-19T12:33:36.209Z,1030.19
2017-04-19T12:34:46.375Z,1030.22
2017-04-19T12:35:55.680Z,1030.21
2017-04-19T12:37:05.609Z,1030.21
2017-04-19T12:38:15.207Z,1030.29
2017-04-19T12:39:25.128Z,1030.23
2017-04-19T12:40:34.891Z,1030.28
2017-04-19T12:41:43.891Z,1030.19
2017-04-19T12:42:53.803Z,1030.24
2017-04-19T12:44:03.411Z,1030.2
2017-04-19T12:45:12.723Z,1030.2
2017-04-19T12:46:22.472Z,1030.23
2017-04-19T12:47:32.066Z,1030.28
2017-04-19T12:48:41.689Z,1030.3
2017-04-19T12:49:51.294Z,1030.38
2017-04-19T12:51:00.823Z,1030.4
2017-04-19T12:52:11.199Z,1030.29
2017-04-19T12:53:20.524Z,1030.25
2017-04-19T12:54:30.331Z,1030.25
2017-04-19T12:55:40.262Z,1030.25
2017-04-19T12:56:50.187Z,1030.21
2017-04-19T12:58:00.405Z,1030.21
2017-04-19T12:59:10.026Z,1030.27
2017-04-19T13:00:19.626Z,1030.24
2017-04-19T13:01:28.958Z,1030.27
2017-04-19T13:02:38.898Z,1030.28
2017-04-19T13:03:48.654Z,1030.24
2017-04-19T13:04:58.588Z,1030.24
2017-04-19T13:06:08.246Z,1030.21
2017-04-19T13:07:18.185Z,1030.2
2017-04-19T13:08:27.496Z,1030.17
2017-04-19T13:09:36.892Z,1030.18
2017-04-19T13:10:47.137Z,1030.21
2017-04-19T13:11:57.344Z,1030.22
2017-04-19T13:13:06.642Z,1030.17
2017-04-19T13:14:15.930Z,1030.15
2017-04-19T13:15:25.692Z,1030.15
2017-04-19T13:16:35.618Z,1030.2
2017-04-19T13:17:44.616Z,1030.2
2017-04-19T13:18:54.259Z,1030.16
2017-04-19T13:20:03.877Z,1030.18
2017-04-19T13:21:13.432Z,1030.16
2017-04-19T13:22:23.333Z,1030.21
2017-04-19T13:23:32.941Z,1030.16
2017-04-19T13:24:42.869Z,1030.16
2017-04-19T13:25:52.948Z,1030.14
2017-04-19T13:27:03.120Z,1030.12
2017-04-19T13:28:12.732Z,1030.11
2017-04-19T13:29:22.329Z,1030.12
2017-04-19T13:30:32.244Z,1030.1
2017-04-19T13:31:42.160Z,1030.08
2017-04-19T13:32:52.322Z,1030.08
2017-04-19T13:34:02.570Z,1030.1
2017-04-19T13:35:12.176Z,1030.08
2017-04-19T13:36:21.471Z,1030.05
2017-04-19T13:37:31.094Z,1030.08
2017-04-19T13:38:40.849Z,1029.96
2017-04-19T13:39:50.452Z,1029.97
2017-04-19T13:41:00.365Z,1030.01
2017-04-19T13:42:10.282Z,1029.97
2017-04-19T13:43:20.191Z,1029.96
2017-04-19T13:44:30.468Z,1029.97
2017-04-19T13:45:39.910Z,1030.03
2017-04-19T13:46:49.087Z,1030.03
2017-04-19T13:47:58.799Z,1030.04
2017-04-19T13:49:08.149Z,1030.05
2017-04-19T13:50:17.741Z,1029.99
2017-04-19T13:51:27.185Z,1030.07
2017-04-19T13:52:37.175Z,1030.07
2017-04-19T13:53:47.165Z,1030.1
2017-04-19T13:54:56.950Z,1030.08
2017-04-19T13:56:06.856Z,1029.98
2017-04-19T13:57:16.791Z,1030.02
2017-04-19T13:58:26.820Z,1029.97
2017-04-19T13:59:36.751Z,1030.02
2017-04-19T14:00:46.496Z,1030.07
2017-04-19T14:01:56.618Z,1030.04
2017-04-19T14:03:06.538Z,1030.02
2017-04-19T14:04:16.458Z,1029.99
2017-04-19T14:05:26.375Z,1029.99
2017-04-19T14:06:36.619Z,1029.99
2017-04-19T14:07:46.487Z,1029.96
2017-04-19T14:08:56.713Z,1029.95
2017-04-19T14:10:06.629Z,1030.02